Terminal Aerodrome Forecast
Issued by NWS

Home | Current Version | Previous Version | Text Only | Print | Product List | Glossary On
Versions: 1 2 3 4 5 6 7 8 9 10 11 12 13 14
000
FTUS46 KMTR 232300
TAFSTS
TAF
KSTS 232339Z 2400/2424 23012G18KT P6SM SCT070 BKN200
     FM240200 25008KT P6SM BKN200
     FM240500 VRB03KT P6SM BKN100
     FM241100 VRB03KT P6SM BKN025 BKN060
     FM241700 VRB03KT P6SM BKN200
     FM242000 23009KT P6SM OVC100=

USA.gov is the U.S. government's official web portal to all federal, state and local government web resources and services.